createdAt,value
2023-02-19T00:02:19.211Z,100.00
2023-02-19T00:04:45.982Z,100.00
2023-02-19T00:07:12.795Z,100.00
2023-02-19T00:09:39.603Z,100.00
2023-02-19T00:12:06.631Z,100.00
2023-02-19T00:14:33.375Z,100.00
2023-02-19T00:17:00.131Z,100.00
2023-02-19T00:19:28.043Z,100.00
2023-02-19T00:21:54.897Z,100.00
2023-02-19T00:24:27.746Z,100.00
2023-02-19T00:26:54.634Z,100.00
2023-02-19T00:29:25.215Z,100.00
2023-02-19T00:31:52.094Z,100.00
2023-02-19T00:34:19.032Z,100.00
2023-02-19T00:36:45.922Z,100.00
2023-02-19T00:39:18.270Z,100.00
2023-02-19T00:41:46.429Z,100.00
2023-02-19T00:44:15.003Z,100.00
2023-02-19T00:46:46.162Z,100.00
2023-02-19T00:49:20.961Z,100.00
2023-02-19T00:51:49.116Z,100.00
2023-02-19T00:54:17.213Z,100.00
2023-02-19T00:56:44.353Z,100.00
2023-02-19T00:59:11.426Z,100.00
2023-02-19T01:01:38.699Z,100.00
2023-02-19T01:04:06.859Z,100.00
2023-02-19T01:06:34.639Z,100.00
2023-02-19T01:09:02.299Z,100.00
2023-02-19T01:11:29.362Z,100.00
2023-02-19T01:14:01.678Z,100.00
2023-02-19T01:16:30.904Z,100.00
2023-02-19T01:18:59.016Z,100.00
2023-02-19T01:21:28.468Z,100.00
2023-02-19T01:23:56.788Z,100.00
2023-02-19T01:26:28.314Z,100.00
2023-02-19T01:28:59.859Z,100.00
2023-02-19T01:31:28.548Z,100.00
2023-02-19T01:34:04.510Z,100.00
2023-02-19T01:36:34.444Z,100.00
2023-02-19T01:39:05.046Z,100.00
2023-02-19T01:41:36.609Z,100.00
2023-02-19T01:44:11.223Z,100.00
2023-02-19T01:46:43.459Z,100.00
2023-02-19T01:49:15.211Z,100.00
2023-02-19T01:51:57.351Z,100.00
2023-02-19T01:54:30.948Z,100.00
2023-02-19T01:56:59.757Z,100.00
2023-02-19T01:59:26.787Z,100.00
2023-02-19T02:01:53.783Z,100.00
2023-02-19T02:04:20.656Z,100.00
2023-02-19T02:06:52.743Z,100.00
2023-02-19T02:09:40.996Z,100.00
2023-02-19T02:12:07.960Z,100.00
2023-02-19T02:14:39.293Z,100.00
2023-02-19T02:17:28.837Z,100.00
2023-02-19T02:20:14.778Z,100.00
2023-02-19T02:22:55.580Z,100.00
2023-02-19T02:25:59.785Z,100.00
2023-02-19T02:28:57.875Z,100.00
2023-02-19T02:31:39.137Z,100.00
2023-02-19T02:34:27.288Z,100.00
2023-02-19T02:36:56.733Z,100.00
2023-02-19T02:39:28.309Z,100.00
2023-02-19T02:42:18.371Z,100.00
2023-02-19T02:45:05.665Z,100.00
2023-02-19T02:47:42.797Z,100.00
2023-02-19T02:50:35.064Z,100.00
2023-02-19T02:53:30.284Z,100.00
2023-02-19T02:56:00.251Z,100.00
2023-02-19T02:58:30.072Z,100.00
2023-02-19T03:01:32.465Z,100.00
2023-02-19T03:04:12.353Z,100.00
2023-02-19T03:06:42.760Z,100.00
2023-02-19T03:09:40.518Z,100.00
2023-02-19T03:12:33.977Z,100.00
2023-02-19T03:15:28.354Z,100.00
2023-02-19T03:18:22.182Z,100.00
2023-02-19T03:20:55.934Z,100.00
2023-02-19T03:23:51.376Z,100.00
2023-02-19T03:26:21.032Z,100.00
2023-02-19T03:29:11.169Z,100.00
2023-02-19T03:31:41.043Z,100.00
2023-02-19T03:34:15.966Z,100.00
2023-02-19T03:37:03.366Z,100.00
2023-02-19T03:39:30.759Z,100.00
2023-02-19T03:42:15.655Z,100.00
2023-02-19T03:44:48.462Z,100.00
2023-02-19T03:47:32.750Z,100.00
2023-02-19T03:50:17.246Z,100.00
2023-02-19T03:53:34.476Z,100.00
2023-02-19T03:56:10.290Z,100.00
2023-02-19T03:59:14.800Z,100.00
2023-02-19T04:01:50.092Z,100.00
2023-02-19T04:04:39.610Z,100.00
2023-02-19T04:07:06.754Z,100.00
2023-02-19T04:09:40.089Z,100.00
2023-02-19T04:12:16.342Z,100.00
2023-02-19T04:14:58.778Z,100.00
2023-02-19T04:17:33.548Z,100.00
2023-02-19T04:20:05.380Z,100.00
2023-02-19T04:22:33.577Z,100.00
2023-02-19T04:25:00.876Z,100.00
2023-02-19T04:27:27.828Z,100.00
2023-02-19T04:29:54.601Z,100.00
2023-02-19T04:32:21.354Z,100.00
2023-02-19T04:34:48.114Z,100.00
2023-02-19T04:37:14.934Z,100.00
2023-02-19T04:39:41.766Z,100.00
2023-02-19T04:42:10.756Z,100.00
2023-02-19T04:44:37.556Z,100.00
2023-02-19T04:47:04.910Z,100.00
2023-02-19T04:49:31.742Z,100.00
2023-02-19T04:51:59.026Z,100.00
2023-02-19T04:54:25.815Z,100.00
2023-02-19T04:56:52.669Z,100.00
2023-02-19T04:59:19.385Z,100.00
2023-02-19T05:01:46.472Z,100.00
2023-02-19T05:04:13.330Z,100.00
2023-02-19T05:06:40.352Z,100.00
2023-02-19T05:09:07.153Z,100.00
2023-02-19T05:11:34.056Z,100.00
2023-02-19T05:14:01.291Z,100.00
2023-02-19T05:16:28.063Z,100.00
2023-02-19T05:18:54.953Z,100.00
2023-02-19T05:21:21.756Z,100.00
2023-02-19T05:23:48.575Z,100.00
2023-02-19T05:26:22.240Z,100.00
2023-02-19T05:28:53.015Z,100.00
2023-02-19T05:31:21.475Z,100.00
2023-02-19T05:33:50.817Z,100.00
2023-02-19T05:36:20.076Z,100.00
2023-02-19T05:38:47.158Z,100.00
2023-02-19T05:41:24.247Z,100.00
2023-02-19T05:43:52.031Z,100.00
2023-02-19T05:46:24.222Z,100.00
2023-02-19T05:48:52.918Z,100.00
2023-02-19T05:51:23.996Z,100.00
2023-02-19T05:53:51.519Z,100.00
2023-02-19T05:56:30.091Z,100.00
2023-02-19T05:58:58.690Z,100.00
2023-02-19T06:01:28.521Z,100.00
2023-02-19T06:03:57.602Z,100.00
2023-02-19T06:06:26.253Z,100.00
2023-02-19T06:08:54.080Z,100.00
2023-02-19T06:11:21.680Z,100.00
2023-02-19T06:13:50.262Z,100.00
2023-02-19T06:16:18.188Z,100.00
2023-02-19T06:18:45.656Z,100.00
2023-02-19T06:21:13.966Z,100.00
2023-02-19T06:23:41.854Z,100.00
2023-02-19T06:26:09.927Z,100.00
2023-02-19T06:28:37.978Z,100.00
2023-02-19T06:31:06.355Z,100.00
2023-02-19T06:33:34.207Z,100.00
2023-02-19T06:36:03.806Z,100.00
2023-02-19T06:38:31.321Z,100.00
2023-02-19T06:41:06.598Z,100.00
2023-02-19T06:43:34.739Z,100.00
2023-02-19T06:46:04.831Z,100.00
2023-02-19T06:48:32.980Z,100.00
2023-02-19T06:50:59.849Z,100.00
2023-02-19T06:53:27.518Z,100.00
2023-02-19T06:56:06.164Z,100.00
2023-02-19T06:58:34.056Z,100.00
2023-02-19T07:01:01.461Z,100.00
2023-02-19T07:03:28.536Z,100.00
2023-02-19T07:05:55.440Z,100.00
2023-02-19T07:08:22.318Z,100.00
2023-02-19T07:10:58.108Z,100.00
2023-02-19T07:13:27.036Z,100.00
2023-02-19T07:16:11.003Z,100.00
2023-02-19T07:18:39.927Z,100.00
2023-02-19T07:21:14.046Z,100.00
2023-02-19T07:23:42.480Z,100.00
2023-02-19T07:26:15.407Z,100.00
2023-02-19T07:28:43.695Z,100.00
2023-02-19T07:31:11.752Z,100.00
2023-02-19T07:33:39.198Z,100.00
2023-02-19T07:36:09.459Z,100.00
2023-02-19T07:38:37.316Z,100.00
2023-02-19T07:41:07.064Z,100.00
2023-02-19T07:43:38.010Z,100.00
2023-02-19T07:46:13.782Z,100.00
2023-02-19T07:48:42.997Z,100.00
2023-02-19T07:51:18.826Z,100.00
2023-02-19T07:53:47.546Z,100.00
2023-02-19T07:56:14.837Z,100.00
2023-02-19T07:58:42.678Z,100.00
2023-02-19T08:01:17.865Z,100.00
2023-02-19T08:03:45.765Z,100.00
2023-02-19T08:06:13.033Z,100.00
2023-02-19T08:08:40.359Z,100.00
2023-02-19T08:11:27.174Z,100.00
2023-02-19T08:13:54.301Z,100.00
2023-02-19T08:16:36.706Z,100.00
2023-02-19T08:19:08.098Z,100.00
2023-02-19T08:21:35.140Z,100.00
2023-02-19T08:24:04.407Z,100.00
2023-02-19T08:26:32.604Z,100.00
2023-02-19T08:28:59.440Z,100.00
2023-02-19T08:31:29.855Z,100.00
2023-02-19T08:33:59.111Z,100.00
2023-02-19T08:36:26.280Z,100.00
2023-02-19T08:38:58.621Z,100.00
2023-02-19T08:41:25.547Z,100.00
2023-02-19T08:43:52.741Z,100.00
2023-02-19T08:46:19.577Z,100.00
2023-02-19T08:48:46.834Z,100.00
2023-02-19T08:51:14.148Z,100.00
2023-02-19T08:53:41.804Z,100.00
2023-02-19T08:56:16.088Z,100.00
2023-02-19T08:58:44.142Z,100.00
2023-02-19T09:01:15.338Z,100.00
2023-02-19T09:03:44.507Z,100.00
2023-02-19T09:06:20.094Z,100.00
2023-02-19T09:08:50.261Z,100.00
2023-02-19T09:11:17.791Z,100.00
2023-02-19T09:13:45.056Z,100.00
2023-02-19T09:16:12.543Z,100.00
2023-02-19T09:18:39.552Z,100.00
2023-02-19T09:21:07.253Z,100.00
2023-02-19T09:23:36.974Z,100.00
2023-02-19T09:26:11.260Z,100.00
2023-02-19T09:28:42.030Z,100.00
2023-02-19T09:31:15.952Z,100.00
2023-02-19T09:33:48.679Z,100.00
2023-02-19T09:36:16.803Z,100.00
2023-02-19T09:38:43.815Z,100.00
2023-02-19T09:41:32.525Z,100.00
2023-02-19T09:44:03.351Z,100.00
2023-02-19T09:46:46.108Z,100.00
2023-02-19T09:49:25.996Z,100.00
2023-02-19T09:52:00.779Z,100.00
2023-02-19T09:54:31.751Z,100.00
2023-02-19T09:57:02.378Z,100.00
2023-02-19T09:59:40.521Z,100.00
2023-02-19T10:02:23.003Z,100.00
2023-02-19T10:04:52.097Z,100.00
2023-02-19T10:07:24.692Z,100.00
2023-02-19T10:10:21.205Z,100.00
2023-02-19T10:12:55.930Z,100.00
2023-02-19T10:15:53.182Z,100.00
2023-02-19T10:18:30.881Z,100.00
2023-02-19T10:20:58.510Z,100.00
2023-02-19T10:23:27.114Z,100.00
2023-02-19T10:26:00.110Z,100.00
2023-02-19T10:28:33.692Z,100.00
2023-02-19T10:31:07.207Z,100.00
2023-02-19T10:33:54.479Z,100.00
2023-02-19T10:36:36.178Z,100.00
2023-02-19T10:39:21.425Z,100.00
2023-02-19T10:41:53.747Z,100.00
2023-02-19T10:44:38.530Z,100.00
2023-02-19T10:47:06.686Z,100.00
2023-02-19T10:49:43.214Z,100.00
2023-02-19T10:52:21.355Z,100.00
2023-02-19T10:54:56.603Z,100.00
2023-02-19T10:57:33.845Z,100.00
2023-02-19T11:00:22.527Z,100.00
2023-02-19T11:02:49.589Z,100.00
2023-02-19T11:05:21.491Z,100.00
2023-02-19T11:07:57.003Z,100.00
2023-02-19T11:10:34.034Z,100.00
2023-02-19T11:13:05.944Z,100.00
2023-02-19T11:15:37.242Z,100.00
2023-02-19T11:18:15.238Z,100.00
2023-02-19T11:20:56.164Z,99.39
2023-02-19T11:23:34.893Z,99.28
2023-02-19T11:26:07.160Z,98.10
2023-02-19T11:28:39.873Z,97.84
2023-02-19T11:31:20.333Z,96.72
2023-02-19T11:34:01.693Z,95.55
2023-02-19T11:36:35.726Z,95.59
2023-02-19T11:39:16.828Z,94.98
2023-02-19T11:42:29.706Z,95.18
2023-02-19T11:45:16.953Z,95.92
2023-02-19T11:48:04.174Z,95.23
2023-02-19T11:51:02.100Z,94.74
2023-02-19T11:53:33.263Z,94.40
2023-02-19T11:56:37.200Z,94.34
2023-02-19T11:59:17.517Z,94.25
2023-02-19T12:02:26.346Z,93.98
2023-02-19T12:05:27.313Z,93.58
2023-02-19T12:08:30.752Z,93.74
2023-02-19T12:11:24.780Z,91.92
2023-02-19T12:14:57.861Z,90.79
2023-02-19T12:17:56.590Z,87.71
2023-02-19T12:20:42.006Z,86.97
2023-02-19T12:23:36.252Z,85.51
2023-02-19T12:26:29.144Z,84.72
2023-02-19T12:29:24.181Z,85.64
2023-02-19T12:32:13.188Z,83.72
2023-02-19T12:34:55.250Z,82.00
2023-02-19T12:38:08.118Z,75.37
2023-02-19T12:40:58.941Z,71.81
2023-02-19T12:43:25.953Z,72.12
2023-02-19T12:45:59.099Z,72.75
2023-02-19T12:48:39.335Z,75.00
2023-02-19T12:51:24.974Z,77.22
2023-02-19T12:54:01.484Z,77.86
2023-02-19T12:56:49.104Z,79.04
2023-02-19T12:59:26.496Z,81.24
2023-02-19T13:02:16.211Z,80.32
2023-02-19T13:05:21.135Z,80.10
2023-02-19T13:08:02.471Z,81.43
2023-02-19T13:10:54.777Z,79.78
2023-02-19T13:14:04.418Z,79.13
2023-02-19T13:16:34.593Z,78.99
2023-02-19T13:19:04.575Z,78.56
2023-02-19T13:21:57.224Z,78.28
2023-02-19T13:24:40.704Z,77.73
2023-02-19T13:30:43.621Z,78.02
2023-02-19T13:33:46.542Z,78.86
2023-02-19T13:36:24.116Z,78.67
2023-02-19T13:38:52.105Z,79.54
2023-02-19T13:41:29.274Z,79.92
2023-02-19T13:44:05.413Z,79.17
2023-02-19T13:46:45.544Z,79.30
2023-02-19T13:49:29.164Z,79.64
2023-02-19T13:52:02.167Z,78.27
2023-02-19T13:54:39.967Z,75.71
2023-02-19T13:57:22.214Z,74.21
2023-02-19T13:59:52.107Z,73.03
2023-02-19T14:02:22.073Z,73.20
2023-02-19T14:05:05.525Z,73.73
2023-02-19T14:08:04.196Z,74.86
2023-02-19T14:10:51.279Z,74.84
2023-02-19T14:13:52.303Z,75.37
2023-02-19T14:16:29.986Z,76.13
2023-02-19T14:18:58.309Z,76.08
2023-02-19T14:21:36.027Z,77.96
2023-02-19T14:24:05.126Z,78.26
2023-02-19T14:26:34.591Z,78.52
2023-02-19T14:29:03.223Z,79.61
2023-02-19T14:31:40.450Z,79.48
2023-02-19T14:34:22.350Z,80.09
2023-02-19T14:36:56.389Z,81.31
2023-02-19T14:39:31.550Z,81.24
2023-02-19T14:42:04.578Z,81.45
2023-02-19T14:44:51.342Z,81.83
2023-02-19T14:47:22.882Z,81.84
2023-02-19T14:50:02.130Z,82.02
2023-02-19T14:52:44.556Z,82.32
2023-02-19T14:55:35.042Z,82.07
2023-02-19T14:58:11.138Z,82.54
2023-02-19T15:00:41.797Z,83.08
2023-02-19T15:03:38.956Z,83.01
2023-02-19T15:06:14.363Z,83.50
2023-02-19T15:08:47.821Z,84.13
2023-02-19T15:11:23.193Z,84.97
2023-02-19T15:13:57.205Z,85.01
2023-02-19T15:16:27.032Z,84.51
2023-02-19T15:18:59.609Z,85.56
2023-02-19T15:21:31.210Z,87.01
2023-02-19T15:24:05.983Z,87.65
2023-02-19T15:26:40.577Z,88.59
2023-02-19T15:29:14.760Z,88.78
2023-02-19T15:32:01.286Z,88.87
2023-02-19T15:34:31.917Z,88.94
2023-02-19T15:37:02.721Z,89.08
2023-02-19T15:39:37.791Z,89.15
2023-02-19T15:42:09.911Z,89.04
2023-02-19T15:44:39.419Z,89.09
2023-02-19T15:47:16.295Z,89.47
2023-02-19T15:49:52.996Z,89.88
2023-02-19T15:52:45.429Z,90.52
2023-02-19T15:55:15.164Z,91.10
2023-02-19T15:57:51.188Z,91.92
2023-02-19T16:00:40.788Z,92.34
2023-02-19T16:03:20.886Z,93.12
2023-02-19T16:06:14.014Z,94.11
2023-02-19T16:08:43.968Z,94.43
2023-02-19T16:11:22.985Z,94.24
2023-02-19T16:13:51.877Z,94.52
2023-02-19T16:16:39.408Z,94.89
2023-02-19T16:19:06.261Z,95.49
2023-02-19T16:21:33.760Z,95.74
2023-02-19T16:24:16.099Z,96.16
2023-02-19T16:26:45.527Z,95.87
2023-02-19T16:29:25.565Z,96.33
2023-02-19T16:32:06.570Z,96.92
2023-02-19T16:34:53.083Z,97.14
2023-02-19T16:37:34.464Z,97.44
2023-02-19T16:40:21.535Z,97.52
2023-02-19T16:42:51.898Z,97.56
2023-02-19T16:45:19.208Z,97.44
2023-02-19T16:47:51.107Z,97.25
2023-02-19T16:50:24.964Z,97.11
2023-02-19T16:53:03.495Z,97.27
2023-02-19T16:55:37.516Z,97.51
2023-02-19T16:58:04.551Z,96.61
2023-02-19T17:00:32.633Z,96.61
2023-02-19T17:03:09.288Z,96.36
2023-02-19T17:05:38.908Z,95.88
2023-02-19T17:08:42.717Z,94.90
2023-02-19T17:11:16.032Z,94.62
2023-02-19T17:13:48.785Z,94.49
2023-02-19T17:16:21.593Z,94.62
2023-02-19T17:18:48.712Z,94.26
2023-02-19T17:21:27.041Z,94.53
2023-02-19T17:23:55.700Z,94.18
2023-02-19T17:26:29.604Z,94.01
2023-02-19T17:28:58.919Z,94.00
2023-02-19T17:31:26.091Z,94.05
2023-02-19T17:33:53.788Z,93.85
2023-02-19T17:36:26.746Z,93.45
2023-02-19T17:38:54.245Z,93.27
2023-02-19T17:41:21.229Z,93.17
2023-02-19T17:43:50.274Z,92.88
2023-02-19T17:46:24.550Z,92.99
2023-02-19T17:48:52.935Z,93.19
2023-02-19T17:51:20.566Z,93.42
2023-02-19T17:53:47.637Z,92.47
2023-02-19T17:56:25.570Z,92.70
2023-02-19T17:58:53.915Z,92.60
2023-02-19T18:01:22.011Z,92.40
2023-02-19T18:03:50.383Z,92.36
2023-02-19T18:06:17.946Z,91.80
2023-02-19T18:08:53.181Z,91.74
2023-02-19T18:11:23.698Z,92.67
2023-02-19T18:13:52.873Z,92.87
2023-02-19T18:16:23.124Z,92.73
2023-02-19T18:18:50.701Z,92.94
2023-02-19T18:21:17.848Z,93.29
2023-02-19T18:23:46.043Z,93.17
2023-02-19T18:26:13.704Z,92.97
2023-02-19T18:28:40.574Z,93.30
2023-02-19T18:31:07.930Z,93.06
2023-02-19T18:33:36.279Z,93.28
2023-02-19T18:36:04.308Z,93.49
2023-02-19T18:38:31.320Z,93.34
2023-02-19T18:40:58.935Z,93.01
2023-02-19T18:43:26.325Z,93.03
2023-02-19T18:45:55.609Z,93.21
2023-02-19T18:48:23.785Z,92.90
2023-02-19T18:50:53.682Z,93.32
2023-02-19T18:53:20.562Z,93.06
2023-02-19T18:55:47.793Z,93.40
2023-02-19T18:58:14.764Z,93.60
2023-02-19T19:00:41.516Z,93.69
2023-02-19T19:03:08.394Z,93.74
2023-02-19T19:05:35.643Z,93.74
2023-02-19T19:08:02.642Z,94.01
2023-02-19T19:10:30.958Z,94.02
2023-02-19T19:12:58.428Z,95.10
2023-02-19T19:15:25.987Z,96.10
2023-02-19T19:17:53.207Z,96.88
2023-02-19T19:20:23.111Z,97.68
2023-02-19T19:22:54.190Z,97.64
2023-02-19T19:25:22.906Z,97.49
2023-02-19T19:27:51.668Z,97.59
2023-02-19T19:30:20.080Z,96.68
2023-02-19T19:32:52.464Z,96.70
2023-02-19T19:35:21.983Z,97.38
2023-02-19T19:37:52.331Z,97.78
2023-02-19T19:40:19.435Z,98.06
2023-02-19T19:42:46.825Z,97.61
2023-02-19T19:45:14.556Z,97.95
2023-02-19T19:47:41.664Z,97.97
2023-02-19T19:50:09.147Z,97.49
2023-02-19T19:52:36.423Z,98.14
2023-02-19T19:55:03.427Z,98.13
2023-02-19T19:57:30.198Z,97.62
2023-02-19T19:59:57.054Z,97.50
2023-02-19T20:02:24.046Z,97.50
2023-02-19T20:04:51.318Z,97.10
2023-02-19T20:07:18.488Z,96.88
2023-02-19T20:09:49.996Z,97.08
2023-02-19T20:12:18.153Z,97.08
2023-02-19T20:14:46.621Z,97.21
2023-02-19T20:17:14.881Z,96.76
2023-02-19T20:19:42.180Z,97.05
2023-02-19T20:22:09.056Z,97.08
2023-02-19T20:24:35.914Z,97.22
2023-02-19T20:27:02.917Z,97.15
2023-02-19T20:29:34.442Z,97.68
2023-02-19T20:32:03.543Z,97.81
2023-02-19T20:34:31.691Z,97.49
2023-02-19T20:36:59.118Z,97.23
2023-02-19T20:39:29.038Z,98.04
2023-02-19T20:41:57.389Z,98.17
2023-02-19T20:44:26.036Z,98.22
2023-02-19T20:46:54.419Z,98.44
2023-02-19T20:49:28.249Z,98.37
2023-02-19T20:51:59.856Z,98.79
2023-02-19T20:54:30.566Z,99.18
2023-02-19T20:57:01.066Z,99.04
2023-02-19T20:59:34.700Z,99.29
2023-02-19T21:02:08.028Z,99.75
2023-02-19T21:04:38.436Z,100.00
2023-02-19T21:07:05.174Z,100.00
2023-02-19T21:09:32.124Z,100.00
2023-02-19T21:11:59.960Z,100.00
2023-02-19T21:14:27.122Z,100.00
2023-02-19T21:16:54.285Z,100.00
2023-02-19T21:19:21.858Z,100.00
2023-02-19T21:21:48.712Z,100.00
2023-02-19T21:24:15.905Z,100.00
2023-02-19T21:26:44.239Z,100.00
2023-02-19T21:29:19.597Z,100.00
2023-02-19T21:31:54.533Z,100.00
2023-02-19T21:34:27.123Z,100.00
2023-02-19T21:36:55.677Z,100.00
2023-02-19T21:39:25.031Z,100.00
2023-02-19T21:41:53.639Z,100.00
2023-02-19T21:44:21.315Z,100.00
2023-02-19T21:46:48.537Z,100.00
2023-02-19T21:49:15.567Z,100.00
2023-02-19T21:51:45.110Z,100.00
2023-02-19T21:54:30.199Z,100.00
2023-02-19T21:56:57.310Z,100.00
2023-02-19T21:59:24.250Z,100.00
2023-02-19T22:01:51.044Z,100.00
2023-02-19T22:04:24.622Z,100.00
2023-02-19T22:06:56.277Z,100.00
2023-02-19T22:09:23.485Z,100.00
2023-02-19T22:11:50.375Z,100.00
2023-02-19T22:14:17.222Z,100.00
2023-02-19T22:16:44.343Z,100.00
2023-02-19T22:19:12.824Z,100.00
2023-02-19T22:21:44.386Z,100.00
2023-02-19T22:24:19.038Z,100.00
2023-02-19T22:26:50.633Z,100.00
2023-02-19T22:29:17.812Z,100.00
2023-02-19T22:31:45.100Z,99.78
2023-02-19T22:34:12.653Z,100.00
2023-02-19T22:36:40.344Z,100.00
2023-02-19T22:39:15.481Z,100.00
2023-02-19T22:41:43.614Z,100.00
2023-02-19T22:44:11.831Z,100.00
2023-02-19T22:46:38.775Z,100.00
2023-02-19T22:49:06.571Z,100.00
2023-02-19T22:51:35.528Z,100.00
2023-02-19T22:54:02.752Z,100.00
2023-02-19T22:56:30.208Z,100.00
2023-02-19T22:58:58.946Z,100.00
2023-02-19T23:01:26.240Z,100.00
2023-02-19T23:03:59.241Z,99.76
2023-02-19T23:06:29.322Z,100.00
2023-02-19T23:09:01.830Z,100.00
2023-02-19T23:11:32.848Z,100.00
2023-02-19T23:13:59.826Z,100.00
2023-02-19T23:16:27.267Z,100.00
2023-02-19T23:18:54.598Z,100.00
2023-02-19T23:21:23.441Z,100.00
2023-02-19T23:23:51.670Z,100.00
2023-02-19T23:26:20.627Z,100.00
2023-02-19T23:28:47.613Z,100.00
2023-02-19T23:31:16.166Z,100.00
2023-02-19T23:33:44.203Z,100.00
2023-02-19T23:36:12.246Z,100.00
2023-02-19T23:38:40.688Z,99.83
2023-02-19T23:41:13.144Z,100.00
2023-02-19T23:43:42.118Z,100.00
2023-02-19T23:46:13.188Z,100.00
2023-02-19T23:48:40.257Z,100.00
2023-02-19T23:51:07.091Z,100.00
2023-02-19T23:53:33.853Z,100.00
2023-02-19T23:56:00.877Z,100.00
2023-02-19T23:58:27.669Z,100.00
